createdAt,value
2019-03-27T00:00:33.535Z,3.95
2019-03-27T00:03:02.249Z,7.65
2019-03-27T00:05:30.984Z,3.98
2019-03-27T00:07:59.638Z,6.87
2019-03-27T00:10:28.305Z,4.22
2019-03-27T00:12:56.975Z,4.12
2019-03-27T00:15:25.714Z,4.62
2019-03-27T00:17:54.536Z,7.17
2019-03-27T00:20:23.226Z,4.95
2019-03-27T00:22:53.216Z,4.28
2019-03-27T00:25:21.902Z,7.08
2019-03-27T00:27:50.571Z,11.60
2019-03-27T00:30:19.369Z,5.42
2019-03-27T00:32:48.038Z,7.25
2019-03-27T00:35:16.693Z,5.95
2019-03-27T00:37:46.089Z,6.15
2019-03-27T00:40:14.879Z,4.65
2019-03-27T00:42:43.670Z,4.53
2019-03-27T00:45:25.443Z,4.95
2019-03-27T00:47:42.931Z,4.55
2019-03-27T00:50:14.763Z,3.87
2019-03-27T00:52:43.409Z,4.75
2019-03-27T00:55:13.986Z,4.87
2019-03-27T00:57:42.654Z,4.83
2019-03-27T01:00:17.381Z,5.80
2019-03-27T01:02:47.687Z,3.75
2019-03-27T01:05:16.396Z,4.28
2019-03-27T01:07:45.148Z,6.28
2019-03-27T01:10:14.454Z,4.90
2019-03-27T01:12:43.103Z,7.85
2019-03-27T01:15:11.816Z,6.70
2019-03-27T01:17:40.568Z,6.92
2019-03-27T01:20:09.463Z,5.03
2019-03-27T01:22:38.188Z,6.20
2019-03-27T01:25:07.392Z,4.55
2019-03-27T01:27:37.407Z,4.20
2019-03-27T01:30:06.754Z,7.35
2019-03-27T01:32:35.415Z,6.55
2019-03-27T01:35:05.677Z,3.45
2019-03-27T01:37:34.342Z,4.45
2019-03-27T01:40:03.142Z,6.10
2019-03-27T01:42:31.798Z,4.28
2019-03-27T01:45:00.455Z,4.30
2019-03-27T01:47:29.123Z,3.72
2019-03-27T01:49:57.854Z,5.70
2019-03-27T01:52:27.684Z,5.83
2019-03-27T01:54:56.326Z,4.58
2019-03-27T01:57:25.053Z,4.37
2019-03-27T01:59:53.755Z,4.12
2019-03-27T02:02:22.477Z,3.70
2019-03-27T02:04:51.140Z,4.22
2019-03-27T02:07:19.781Z,6.25
2019-03-27T02:09:48.442Z,5.75
2019-03-27T02:12:18.726Z,5.22
2019-03-27T02:14:47.403Z,6.15
2019-03-27T02:17:16.126Z,5.62
2019-03-27T02:19:44.857Z,6.70
2019-03-27T02:22:13.579Z,3.58
2019-03-27T02:24:42.237Z,4.33
2019-03-27T02:27:10.966Z,9.95
2019-03-27T02:29:39.627Z,7.00
2019-03-27T02:32:08.344Z,4.97
2019-03-27T02:34:37.129Z,5.15
2019-03-27T02:37:05.863Z,7.12
2019-03-27T02:39:34.542Z,7.03
2019-03-27T02:42:03.287Z,5.05
2019-03-27T02:44:33.280Z,7.17
2019-03-27T02:47:01.969Z,4.83
2019-03-27T02:49:31.530Z,7.90
2019-03-27T02:52:00.261Z,5.95
2019-03-27T02:54:28.911Z,5.45
2019-03-27T02:56:57.687Z,6.03
2019-03-27T02:59:26.416Z,5.95
2019-03-27T03:01:58.133Z,7.80
2019-03-27T03:04:26.835Z,9.18
2019-03-27T03:06:55.483Z,6.10
2019-03-27T03:09:24.256Z,8.83
2019-03-27T03:11:52.903Z,7.95
2019-03-27T03:14:21.544Z,7.67
2019-03-27T03:16:52.135Z,5.45
2019-03-27T03:19:20.783Z,6.05
2019-03-27T03:21:49.499Z,4.28
2019-03-27T03:24:18.181Z,6.58
2019-03-27T03:26:50.897Z,5.95
2019-03-27T03:29:17.805Z,6.28
2019-03-27T03:31:46.666Z,9.08
2019-03-27T03:34:15.311Z,4.60
2019-03-27T03:36:43.965Z,4.20
2019-03-27T03:39:12.655Z,6.03
2019-03-27T03:41:41.405Z,8.20
2019-03-27T03:44:11.429Z,6.33
2019-03-27T03:46:40.655Z,6.58
2019-03-27T03:49:10.508Z,8.68
2019-03-27T03:51:39.817Z,7.97
2019-03-27T03:54:08.815Z,6.53
2019-03-27T03:56:41.031Z,7.70
2019-03-27T03:59:12.271Z,9.40
2019-03-27T04:01:43.419Z,7.55
2019-03-27T04:04:13.536Z,8.25
2019-03-27T04:06:43.826Z,8.70
2019-03-27T04:09:12.474Z,6.62
2019-03-27T04:11:42.683Z,9.63
2019-03-27T04:14:11.386Z,7.20
2019-03-27T04:16:40.146Z,7.28
2019-03-27T04:19:08.794Z,9.60
2019-03-27T04:21:37.613Z,9.95
2019-03-27T04:24:06.345Z,8.68
2019-03-27T04:26:35.084Z,12.03
2019-03-27T04:29:04.016Z,13.75
2019-03-27T04:31:32.751Z,8.95
2019-03-27T04:34:03.210Z,10.82
2019-03-27T04:36:34.883Z,7.50
2019-03-27T04:39:04.826Z,8.10
2019-03-27T04:41:33.467Z,6.75
2019-03-27T04:44:02.695Z,12.95
2019-03-27T04:46:31.431Z,7.30
2019-03-27T04:49:07.637Z,8.68
2019-03-27T04:51:35.413Z,5.60
2019-03-27T04:54:04.073Z,8.75
2019-03-27T04:56:32.865Z,5.50
2019-03-27T04:59:01.558Z,5.40
2019-03-27T05:01:30.281Z,7.28
2019-03-27T05:03:59.593Z,7.62
2019-03-27T05:06:28.247Z,8.63
2019-03-27T05:08:56.898Z,8.90
2019-03-27T05:11:25.622Z,8.90
2019-03-27T05:13:54.277Z,7.97
2019-03-27T05:16:22.938Z,5.97
2019-03-27T05:18:51.624Z,8.60
2019-03-27T05:21:21.937Z,9.95
2019-03-27T05:23:51.877Z,9.50
2019-03-27T05:26:20.622Z,7.45
2019-03-27T05:28:49.342Z,8.63
2019-03-27T05:31:18.020Z,8.95
2019-03-27T05:33:47.934Z,9.68
2019-03-27T05:36:19.797Z,5.85
2019-03-27T05:38:48.434Z,10.00
2019-03-27T05:41:17.093Z,10.85
2019-03-27T05:43:48.556Z,13.65
2019-03-27T05:46:17.727Z,7.90
2019-03-27T05:48:50.846Z,7.85
2019-03-27T05:51:19.549Z,10.05
2019-03-27T05:53:48.415Z,11.28
2019-03-27T05:56:17.131Z,9.48
2019-03-27T05:58:47.339Z,8.60
2019-03-27T06:01:15.993Z,13.83
2019-03-27T06:03:44.708Z,8.63
2019-03-27T06:06:13.518Z,9.13
2019-03-27T06:08:42.215Z,9.85
2019-03-27T06:11:10.912Z,10.13
2019-03-27T06:13:39.578Z,12.10
2019-03-27T06:16:08.293Z,13.15
2019-03-27T06:18:38.502Z,12.23
2019-03-27T06:21:07.146Z,13.78
2019-03-27T06:23:42.936Z,9.40
2019-03-27T06:26:11.591Z,8.58
2019-03-27T06:28:43.162Z,9.60
2019-03-27T06:31:12.382Z,14.80
2019-03-27T06:33:41.015Z,7.72
2019-03-27T06:36:09.687Z,7.17
2019-03-27T06:38:38.332Z,7.08
2019-03-27T06:41:10.161Z,11.63
2019-03-27T06:43:38.814Z,13.58
2019-03-27T06:46:07.484Z,11.28
2019-03-27T06:48:36.201Z,10.18
2019-03-27T06:51:06.737Z,12.73
2019-03-27T06:53:35.369Z,12.53
2019-03-27T06:56:04.187Z,12.30
2019-03-27T06:58:34.497Z,10.75
2019-03-27T07:01:05.730Z,10.65
2019-03-27T07:03:34.737Z,8.03
2019-03-27T07:06:03.519Z,13.05
2019-03-27T07:08:33.704Z,13.30
2019-03-27T07:11:02.377Z,15.00
2019-03-27T07:13:31.039Z,17.32
2019-03-27T07:16:02.681Z,15.43
2019-03-27T07:18:39.888Z,10.20
2019-03-27T07:21:03.633Z,11.55
2019-03-27T07:23:32.414Z,8.95
2019-03-27T07:26:01.069Z,10.43
2019-03-27T07:28:31.427Z,8.43
2019-03-27T07:31:00.252Z,8.25
2019-03-27T07:33:31.469Z,12.05
2019-03-27T07:36:01.663Z,10.15
2019-03-27T07:38:30.321Z,13.68
2019-03-27T07:40:58.962Z,9.45
2019-03-27T07:43:28.563Z,9.48
2019-03-27T07:45:57.242Z,19.23
2019-03-27T07:48:25.870Z,8.93
2019-03-27T07:50:54.514Z,9.98
2019-03-27T07:53:23.988Z,8.53
2019-03-27T07:55:52.712Z,8.73
2019-03-27T07:58:23.019Z,10.85
2019-03-27T08:00:52.239Z,7.15
2019-03-27T08:03:25.187Z,6.65
2019-03-27T08:05:55.537Z,9.18
2019-03-27T08:08:25.520Z,7.75
2019-03-27T08:10:54.242Z,11.63
2019-03-27T08:13:22.893Z,6.75
2019-03-27T08:15:51.694Z,8.25
2019-03-27T08:18:20.432Z,7.78
2019-03-27T08:20:49.083Z,7.85
2019-03-27T08:23:19.280Z,11.88
2019-03-27T08:25:47.937Z,10.50
2019-03-27T08:28:16.732Z,6.83
2019-03-27T08:30:45.389Z,7.67
2019-03-27T08:33:14.032Z,9.70
2019-03-27T08:35:42.730Z,17.73
2019-03-27T08:38:11.448Z,9.50
2019-03-27T08:40:40.167Z,8.80
2019-03-27T08:43:20.507Z,6.30
2019-03-27T08:45:39.271Z,8.73
2019-03-27T08:48:07.991Z,8.85
2019-03-27T08:50:38.278Z,9.58
2019-03-27T08:53:07.010Z,6.67
2019-03-27T08:55:35.667Z,5.75
2019-03-27T08:58:04.459Z,6.28
2019-03-27T09:00:47.553Z,8.60
2019-03-27T09:03:16.548Z,6.95
2019-03-27T09:05:45.257Z,7.62
2019-03-27T09:08:14.187Z,8.90
2019-03-27T09:10:42.970Z,9.00
2019-03-27T09:13:11.712Z,7.97
2019-03-27T09:15:43.076Z,7.75
2019-03-27T09:18:11.824Z,6.80
2019-03-27T09:20:40.537Z,7.30
2019-03-27T09:23:09.291Z,6.85
2019-03-27T09:25:53.031Z,11.90
2019-03-27T09:28:25.111Z,5.08
2019-03-27T09:30:57.593Z,8.15
2019-03-27T09:33:26.354Z,5.47
2019-03-27T09:35:55.086Z,8.50
2019-03-27T09:38:25.146Z,6.83
2019-03-27T09:40:53.892Z,8.98
2019-03-27T09:43:22.586Z,7.58
2019-03-27T09:45:51.375Z,5.30
2019-03-27T09:48:20.152Z,6.40
2019-03-27T09:50:48.882Z,5.45
2019-03-27T09:53:17.618Z,5.78
2019-03-27T09:55:46.355Z,7.25
2019-03-27T09:58:17.782Z,7.22
2019-03-27T10:00:54.333Z,5.33
2019-03-27T10:03:22.979Z,5.00
2019-03-27T10:05:51.781Z,7.62
2019-03-27T10:08:20.451Z,6.65
2019-03-27T10:10:50.840Z,7.70
2019-03-27T10:13:20.060Z,6.53
2019-03-27T10:15:48.787Z,6.03
2019-03-27T10:18:17.442Z,9.13
2019-03-27T10:20:46.168Z,6.87
2019-03-27T10:23:16.186Z,7.40
2019-03-27T10:25:44.851Z,6.58
2019-03-27T10:28:13.511Z,5.40
2019-03-27T10:30:46.723Z,7.83
2019-03-27T10:33:16.993Z,6.50
2019-03-27T10:35:45.703Z,6.58
2019-03-27T10:38:14.361Z,7.35
2019-03-27T10:40:43.090Z,5.35
2019-03-27T10:43:13.371Z,7.65
2019-03-27T10:45:42.090Z,6.20
2019-03-27T10:48:10.749Z,5.53
2019-03-27T10:50:39.393Z,5.83
2019-03-27T10:53:09.759Z,5.62
2019-03-27T10:55:38.507Z,6.62
2019-03-27T10:58:07.916Z,7.37
2019-03-27T11:00:38.098Z,5.83
2019-03-27T11:03:06.751Z,6.00
2019-03-27T11:05:35.489Z,8.55
2019-03-27T11:08:04.283Z,6.87
2019-03-27T11:10:33.035Z,6.42
2019-03-27T11:13:01.685Z,4.85
2019-03-27T11:15:30.428Z,6.03
2019-03-27T11:17:59.814Z,7.08
2019-03-27T11:20:31.253Z,5.53
2019-03-27T11:23:01.494Z,7.87
2019-03-27T11:25:33.394Z,5.78
2019-03-27T11:28:02.146Z,9.10
2019-03-27T11:30:38.512Z,5.72
2019-03-27T11:33:07.393Z,7.33
2019-03-27T11:35:36.041Z,7.37
2019-03-27T11:38:04.794Z,9.53
2019-03-27T11:40:33.517Z,10.98
2019-03-27T11:43:06.956Z,6.50
2019-03-27T11:45:35.776Z,5.67
2019-03-27T11:48:08.071Z,5.75
2019-03-27T11:50:44.889Z,4.40
2019-03-27T11:53:06.432Z,5.55
2019-03-27T11:55:35.143Z,6.55
2019-03-27T11:58:21.805Z,8.15
2019-03-27T12:01:08.715Z,7.08
2019-03-27T12:03:41.424Z,8.18
2019-03-27T12:06:11.628Z,5.87
2019-03-27T12:08:40.732Z,7.87
2019-03-27T12:11:09.388Z,7.33
2019-03-27T12:13:40.793Z,9.28
2019-03-27T12:16:09.570Z,6.25
2019-03-27T12:18:38.441Z,6.83
2019-03-27T12:21:07.293Z,7.50
2019-03-27T12:23:36.168Z,7.60
2019-03-27T12:26:05.006Z,6.62
2019-03-27T12:28:33.863Z,5.47
2019-03-27T12:31:02.704Z,6.92
2019-03-27T12:33:31.355Z,10.15
2019-03-27T12:36:00.008Z,6.95
2019-03-27T12:38:28.679Z,6.42
2019-03-27T12:40:57.336Z,8.13
2019-03-27T12:43:26.070Z,5.75
2019-03-27T12:45:56.719Z,7.15
2019-03-27T12:48:25.363Z,9.90
2019-03-27T12:50:54.101Z,8.00
2019-03-27T12:53:22.746Z,6.17
2019-03-27T12:55:51.545Z,8.10
2019-03-27T12:58:20.194Z,7.70
2019-03-27T13:00:48.975Z,6.15
2019-03-27T13:03:17.628Z,9.78
2019-03-27T13:05:46.614Z,7.17
2019-03-27T13:08:15.379Z,10.55
2019-03-27T13:10:44.033Z,10.08
2019-03-27T13:13:12.700Z,6.87
2019-03-27T13:15:41.503Z,10.15
2019-03-27T13:18:11.704Z,8.88
2019-03-27T13:20:40.423Z,8.15
2019-03-27T13:23:09.079Z,8.80
2019-03-27T13:25:37.793Z,6.67
2019-03-27T13:28:06.595Z,8.98
2019-03-27T13:30:35.317Z,7.12
2019-03-27T13:33:04.143Z,9.03
2019-03-27T13:35:32.879Z,7.08
2019-03-27T13:38:01.607Z,7.08
2019-03-27T13:40:31.811Z,6.35
2019-03-27T13:43:00.522Z,9.08
2019-03-27T13:45:29.347Z,6.78
2019-03-27T13:47:58.099Z,9.18
2019-03-27T13:50:26.739Z,8.68
2019-03-27T13:52:55.391Z,8.70
2019-03-27T13:55:24.145Z,6.35
2019-03-27T13:57:52.789Z,7.33
2019-03-27T14:00:21.599Z,8.45
2019-03-27T14:02:50.363Z,6.87
2019-03-27T14:05:19.189Z,7.65
2019-03-27T14:07:47.936Z,8.70
2019-03-27T14:10:16.963Z,6.85
2019-03-27T14:12:46.602Z,8.03
2019-03-27T14:15:15.826Z,8.88
2019-03-27T14:17:45.463Z,7.62
2019-03-27T14:20:14.813Z,8.38
2019-03-27T14:22:43.647Z,6.45
2019-03-27T14:25:12.936Z,8.65
2019-03-27T14:27:45.051Z,6.80
2019-03-27T14:30:15.227Z,8.10
2019-03-27T14:32:43.949Z,7.08
2019-03-27T14:35:12.938Z,5.72
2019-03-27T14:37:41.683Z,8.58
2019-03-27T14:40:10.682Z,7.17
2019-03-27T14:42:39.488Z,6.65
2019-03-27T14:45:08.905Z,10.50
2019-03-27T14:47:37.895Z,6.22
2019-03-27T14:50:08.280Z,6.80
2019-03-27T14:52:39.891Z,7.87
2019-03-27T14:55:08.875Z,6.33
2019-03-27T14:57:38.188Z,9.33
2019-03-27T15:00:11.256Z,6.58
2019-03-27T15:02:40.000Z,8.73
2019-03-27T15:05:10.255Z,7.25
2019-03-27T15:07:39.009Z,7.05
2019-03-27T15:10:09.130Z,7.25
2019-03-27T15:12:38.015Z,7.75
2019-03-27T15:15:09.291Z,7.20
2019-03-27T15:17:38.085Z,6.78
2019-03-27T15:20:08.746Z,6.87
2019-03-27T15:22:37.580Z,7.75
2019-03-27T15:25:07.206Z,8.83
2019-03-27T15:27:35.923Z,6.35
2019-03-27T15:30:12.474Z,6.40
2019-03-27T15:32:39.436Z,6.55
2019-03-27T15:35:08.412Z,6.42
2019-03-27T15:37:37.171Z,6.80
2019-03-27T15:40:06.854Z,7.12
2019-03-27T15:42:35.757Z,5.47
2019-03-27T15:45:07.837Z,11.15
2019-03-27T15:47:36.572Z,5.67
2019-03-27T15:50:07.792Z,5.87
2019-03-27T15:52:37.166Z,7.05
2019-03-27T15:55:06.723Z,6.20
2019-03-27T15:57:35.380Z,7.65
2019-03-27T16:00:06.167Z,6.10
2019-03-27T16:02:34.900Z,5.53
2019-03-27T16:05:04.243Z,5.90
2019-03-27T16:07:34.243Z,8.18
2019-03-27T16:10:03.002Z,5.12
2019-03-27T16:12:31.742Z,5.83
2019-03-27T16:15:01.438Z,5.58
2019-03-27T16:17:30.096Z,8.63
2019-03-27T16:19:58.827Z,5.62
2019-03-27T16:22:27.558Z,6.85
2019-03-27T16:24:56.229Z,7.10
2019-03-27T16:27:24.887Z,7.10
2019-03-27T16:29:53.547Z,9.53
2019-03-27T16:32:22.278Z,16.82
2019-03-27T16:34:51.007Z,7.37
2019-03-27T16:37:19.815Z,10.82
2019-03-27T16:39:48.573Z,9.18
2019-03-27T16:42:17.235Z,8.15
2019-03-27T16:44:45.902Z,8.65
2019-03-27T16:47:14.627Z,7.50
2019-03-27T16:49:43.399Z,11.35
2019-03-27T16:52:12.178Z,6.70
2019-03-27T16:54:40.995Z,14.85
2019-03-27T16:57:09.637Z,6.42
2019-03-27T16:59:38.292Z,8.23
2019-03-27T17:02:07.139Z,13.53
2019-03-27T17:04:35.778Z,7.78
2019-03-27T17:07:04.577Z,11.35
2019-03-27T17:09:33.254Z,8.73
2019-03-27T17:12:01.991Z,14.10
2019-03-27T17:14:30.726Z,11.43
2019-03-27T17:16:59.589Z,9.60
2019-03-27T17:19:28.279Z,12.33
2019-03-27T17:21:57.001Z,9.45
2019-03-27T17:24:25.710Z,11.00
2019-03-27T17:26:54.356Z,10.23
2019-03-27T17:29:23.107Z,9.78
2019-03-27T17:31:51.789Z,11.40
2019-03-27T17:34:20.455Z,11.68
2019-03-27T17:36:49.223Z,11.48
2019-03-27T17:42:04.003Z,12.18
2019-03-27T17:44:32.666Z,12.78
2019-03-27T17:47:01.321Z,10.38
2019-03-27T17:49:30.123Z,27.20
2019-03-27T17:51:58.863Z,22.58
2019-03-27T17:54:27.522Z,15.15
2019-03-27T17:56:56.190Z,12.20
2019-03-27T17:59:24.945Z,63.83
2019-03-27T18:01:53.608Z,16.77
2019-03-27T18:04:22.276Z,13.98
2019-03-27T18:06:50.945Z,18.02
2019-03-27T18:09:19.596Z,16.85
2019-03-27T18:11:48.372Z,17.85
2019-03-27T18:14:17.029Z,16.80
2019-03-27T18:16:45.829Z,16.95
2019-03-27T18:19:14.524Z,16.15
2019-03-27T18:21:43.186Z,12.73
2019-03-27T18:24:11.942Z,15.83
2019-03-27T18:26:40.600Z,15.48
2019-03-27T18:29:09.398Z,12.03
2019-03-27T18:31:38.134Z,15.85
2019-03-27T18:34:06.891Z,16.52
2019-03-27T18:36:35.619Z,23.65
2019-03-27T18:39:07.054Z,21.57
2019-03-27T18:41:35.803Z,18.98
2019-03-27T18:44:04.713Z,78.83
2019-03-27T18:46:33.374Z,50.80
2019-03-27T18:49:02.038Z,18.62
2019-03-27T18:51:30.697Z,21.95
2019-03-27T18:54:00.216Z,24.47
2019-03-27T18:56:29.079Z,35.65
2019-03-27T18:58:57.866Z,25.45
2019-03-27T19:01:26.650Z,33.13
2019-03-27T19:03:55.298Z,35.30
2019-03-27T19:06:24.067Z,23.92
2019-03-27T19:08:52.726Z,20.30
2019-03-27T19:11:21.492Z,21.97
2019-03-27T19:13:50.161Z,19.52
2019-03-27T19:16:18.902Z,23.70
2019-03-27T19:18:47.568Z,25.55
2019-03-27T19:21:16.219Z,23.32
2019-03-27T19:23:44.932Z,18.50
2019-03-27T19:26:13.794Z,25.10
2019-03-27T19:28:42.542Z,19.17
2019-03-27T19:31:11.316Z,19.12
2019-03-27T19:33:40.619Z,23.27
2019-03-27T19:36:09.457Z,18.65
2019-03-27T19:38:38.213Z,35.40
2019-03-27T19:41:06.957Z,26.87
2019-03-27T19:43:35.720Z,29.60
2019-03-27T19:46:04.529Z,30.08
2019-03-27T19:48:35.772Z,20.95
2019-03-27T19:51:04.591Z,23.12
2019-03-27T19:53:33.434Z,23.65
2019-03-27T19:56:02.082Z,24.77
2019-03-27T19:58:30.746Z,28.90
2019-03-27T20:00:59.554Z,24.77
2019-03-27T20:03:28.314Z,26.87
2019-03-27T20:05:56.961Z,28.50
2019-03-27T20:08:25.651Z,23.10
2019-03-27T20:10:54.399Z,27.67
2019-03-27T20:13:23.063Z,23.60
2019-03-27T20:15:51.828Z,23.35
2019-03-27T20:18:20.520Z,24.80
2019-03-27T20:20:49.197Z,25.12
2019-03-27T20:23:17.927Z,22.27
2019-03-27T20:25:46.672Z,23.15
2019-03-27T20:28:15.389Z,24.27
2019-03-27T20:30:44.278Z,24.05
2019-03-27T20:33:12.983Z,26.77
2019-03-27T20:35:41.715Z,20.32
2019-03-27T20:38:10.370Z,22.17
2019-03-27T20:40:39.247Z,17.92
2019-03-27T20:43:07.910Z,20.32
2019-03-27T20:45:36.781Z,25.77
2019-03-27T20:48:05.503Z,18.67
2019-03-27T20:50:34.203Z,18.45
2019-03-27T20:53:02.957Z,17.62
2019-03-27T20:55:31.690Z,19.23
2019-03-27T20:58:00.459Z,18.15
2019-03-27T21:00:29.228Z,24.15
2019-03-27T21:02:57.898Z,18.10
2019-03-27T21:05:26.557Z,18.80
2019-03-27T21:07:55.225Z,16.75
2019-03-27T21:10:24.015Z,20.35
2019-03-27T21:12:52.851Z,24.47
2019-03-27T21:15:21.628Z,20.95
2019-03-27T21:17:50.446Z,24.20
2019-03-27T21:20:19.103Z,16.12
2019-03-27T21:22:47.845Z,22.52
2019-03-27T21:25:16.817Z,22.27
2019-03-27T21:27:45.523Z,17.17
2019-03-27T21:30:15.014Z,21.35
2019-03-27T21:32:43.631Z,20.27
2019-03-27T21:35:12.415Z,19.05
2019-03-27T21:37:41.101Z,20.43
2019-03-27T21:40:10.069Z,19.65
2019-03-27T21:42:38.730Z,18.42
2019-03-27T21:45:09.250Z,16.48
2019-03-27T21:47:37.931Z,17.95
2019-03-27T21:50:07.803Z,16.25
2019-03-27T21:52:36.440Z,16.30
2019-03-27T21:55:07.205Z,17.02
2019-03-27T21:57:35.831Z,18.50
2019-03-27T22:00:07.306Z,18.32
2019-03-27T22:02:35.927Z,16.62
2019-03-27T22:05:06.407Z,14.68
2019-03-27T22:07:35.143Z,16.73
2019-03-27T22:10:05.610Z,15.20
2019-03-27T22:12:34.302Z,15.28
2019-03-27T22:15:03.063Z,15.03
2019-03-27T22:17:31.727Z,15.13
2019-03-27T22:20:00.359Z,21.75
2019-03-27T22:22:29.067Z,13.80
2019-03-27T22:24:58.103Z,14.40
2019-03-27T22:27:26.711Z,14.05
2019-03-27T22:29:55.341Z,15.35
2019-03-27T22:32:23.991Z,12.93
2019-03-27T22:34:52.603Z,15.95
2019-03-27T22:37:21.219Z,14.38
2019-03-27T22:39:49.918Z,13.88
2019-03-27T22:42:18.565Z,11.60
2019-03-27T22:44:47.187Z,14.28
2019-03-27T22:47:15.871Z,17.48
2019-03-27T22:49:44.567Z,15.80
2019-03-27T22:52:13.209Z,13.38
2019-03-27T22:54:41.836Z,21.65
2019-03-27T22:57:10.521Z,13.53
2019-03-27T22:59:39.143Z,12.43
2019-03-27T23:02:07.848Z,14.80
2019-03-27T23:04:36.492Z,15.43
2019-03-27T23:07:05.245Z,13.90
2019-03-27T23:09:33.858Z,14.47
2019-03-27T23:12:02.563Z,16.70
2019-03-27T23:14:31.275Z,12.75
2019-03-27T23:16:59.983Z,11.83
2019-03-27T23:19:28.707Z,13.28
2019-03-27T23:21:57.332Z,13.80
2019-03-27T23:24:26.091Z,14.45
2019-03-27T23:26:54.792Z,15.63
2019-03-27T23:29:23.549Z,15.00
2019-03-27T23:31:52.185Z,11.30
2019-03-27T23:34:20.797Z,11.48
2019-03-27T23:36:49.427Z,11.97
2019-03-27T23:39:18.088Z,12.50
2019-03-27T23:41:46.698Z,10.93
2019-03-27T23:44:15.330Z,12.33
2019-03-27T23:46:44.022Z,15.35
2019-03-27T23:49:12.658Z,13.75
2019-03-27T23:51:41.419Z,14.95
2019-03-27T23:54:10.115Z,11.93
2019-03-27T23:56:38.730Z,9.45
2019-03-27T23:59:07.427Z,11.93
